createdAt,value
2018-04-27T00:00:04.223Z,40.80
2018-04-27T00:02:38.481Z,40.70
2018-04-27T00:05:12.839Z,40.90
2018-04-27T00:07:48.764Z,41.00
2018-04-27T00:10:23.166Z,41.00
2018-04-27T00:12:57.635Z,41.00
2018-04-27T00:15:32.132Z,41.00
2018-04-27T00:18:06.409Z,41.00
2018-04-27T00:20:40.903Z,41.00
2018-04-27T00:23:15.361Z,41.00
2018-04-27T00:25:50.424Z,41.20
2018-04-27T00:28:24.837Z,41.20
2018-04-27T00:30:59.953Z,41.50
2018-04-27T00:33:34.397Z,41.50
2018-04-27T00:36:08.704Z,41.40
2018-04-27T00:38:43.235Z,41.30
2018-04-27T00:41:17.560Z,41.30
2018-04-27T00:43:52.072Z,41.30
2018-04-27T00:46:26.503Z,41.20
2018-04-27T00:49:00.950Z,41.30
2018-04-27T00:51:35.358Z,41.30
2018-04-27T00:54:09.773Z,41.30
2018-04-27T00:56:44.216Z,41.40
2018-04-27T00:59:18.702Z,41.40
2018-04-27T01:01:53.158Z,41.30
2018-04-27T01:04:27.674Z,41.40
2018-04-27T01:07:02.111Z,41.40
2018-04-27T01:09:36.437Z,41.40
2018-04-27T01:12:10.713Z,41.50
2018-04-27T01:14:45.016Z,41.50
2018-04-27T01:17:19.439Z,41.40
2018-04-27T01:19:53.791Z,41.60
2018-04-27T01:22:28.118Z,41.60
2018-04-27T01:25:02.525Z,41.70
2018-04-27T01:27:36.925Z,41.70
2018-04-27T01:30:11.308Z,41.70
2018-04-27T01:32:45.597Z,41.70
2018-04-27T01:35:20.008Z,41.60
2018-04-27T01:37:55.201Z,41.90
2018-04-27T01:40:29.456Z,41.90
2018-04-27T01:43:03.900Z,41.80
2018-04-27T01:45:38.209Z,41.80
2018-04-27T01:48:12.725Z,41.50
2018-04-27T01:50:47.153Z,42.30
2018-04-27T01:53:22.251Z,42.30
2018-04-27T01:55:56.645Z,42.30
2018-04-27T01:58:31.129Z,42.10
2018-04-27T02:01:05.529Z,42.00
2018-04-27T02:03:40.249Z,42.00
2018-04-27T02:06:14.661Z,42.00
2018-04-27T02:08:49.121Z,42.10
2018-04-27T02:11:23.541Z,41.90
2018-04-27T02:13:57.841Z,41.70
2018-04-27T02:16:32.149Z,42.20
2018-04-27T02:19:06.573Z,42.50
2018-04-27T02:21:41.624Z,42.30
2018-04-27T02:24:16.067Z,42.30
2018-04-27T02:26:51.273Z,42.50
2018-04-27T02:29:25.788Z,42.50
2018-04-27T02:32:00.144Z,43.10
2018-04-27T02:34:34.422Z,43.00
2018-04-27T02:37:08.965Z,43.00
2018-04-27T02:39:43.256Z,42.90
2018-04-27T02:42:17.576Z,42.50
2018-04-27T02:44:51.882Z,42.80
2018-04-27T02:47:26.357Z,43.00
2018-04-27T02:50:00.898Z,45.00
2018-04-27T02:52:35.156Z,44.70
2018-04-27T02:55:09.482Z,44.60
2018-04-27T02:57:43.815Z,44.70
2018-04-27T03:00:18.147Z,44.90
2018-04-27T03:02:52.432Z,45.00
2018-04-27T03:05:26.737Z,45.10
2018-04-27T03:08:01.057Z,45.50
2018-04-27T03:10:35.796Z,45.50
2018-04-27T03:13:10.249Z,45.80
2018-04-27T03:15:44.660Z,46.10
2018-04-27T03:18:18.999Z,46.50
2018-04-27T03:20:53.312Z,46.70
2018-04-27T03:23:27.633Z,46.30
2018-04-27T03:26:01.984Z,46.40
2018-04-27T03:28:36.371Z,46.90
2018-04-27T03:31:10.638Z,47.20
2018-04-27T03:33:44.943Z,46.70
2018-04-27T03:36:19.233Z,46.40
2018-04-27T03:38:53.730Z,47.60
2018-04-27T03:41:28.025Z,47.20
2018-04-27T03:44:02.339Z,47.00
2018-04-27T03:46:36.679Z,46.80
2018-04-27T03:49:10.997Z,45.80
2018-04-27T03:51:45.304Z,46.70
2018-04-27T03:54:20.514Z,47.30
2018-04-27T03:56:55.013Z,47.30
2018-04-27T03:59:41.281Z,47.20
2018-04-27T04:02:27.671Z,46.80
2018-04-27T04:05:15.518Z,46.60
2018-04-27T04:07:49.918Z,46.60
2018-04-27T04:10:24.470Z,46.60
2018-04-27T04:12:58.962Z,46.60
2018-04-27T04:15:33.300Z,46.40
2018-04-27T04:18:07.804Z,47.00
2018-04-27T04:20:42.125Z,46.90
2018-04-27T04:23:16.537Z,46.70
2018-04-27T04:25:51.612Z,46.70
2018-04-27T04:28:25.883Z,46.70
2018-04-27T04:31:00.252Z,46.60
2018-04-27T04:33:34.528Z,46.80
2018-04-27T04:36:09.031Z,46.80
2018-04-27T04:38:43.371Z,46.80
2018-04-27T04:41:17.794Z,47.10
2018-04-27T04:43:52.139Z,47.90
2018-04-27T04:46:26.889Z,47.50
2018-04-27T04:49:01.301Z,47.20
2018-04-27T04:51:35.921Z,47.30
2018-04-27T04:54:10.229Z,46.30
2018-04-27T04:56:44.641Z,47.90
2018-04-27T04:59:19.072Z,47.50
2018-04-27T05:01:53.478Z,47.70
2018-04-27T05:04:27.809Z,46.10
2018-04-27T05:07:02.927Z,50.70
2018-04-27T05:09:37.488Z,50.60
2018-04-27T05:12:11.765Z,48.20
2018-04-27T05:14:46.119Z,49.50
2018-04-27T05:17:20.441Z,46.40
2018-04-27T05:19:55.257Z,50.00
2018-04-27T05:22:33.473Z,48.70
2018-04-27T05:25:07.988Z,48.00
2018-04-27T05:27:42.308Z,50.20
2018-04-27T05:30:16.709Z,52.50
2018-04-27T05:32:51.144Z,50.70
2018-04-27T05:35:25.611Z,50.70
2018-04-27T05:38:00.092Z,51.00
2018-04-27T05:40:34.493Z,52.20
2018-04-27T05:43:08.768Z,50.60
2018-04-27T05:45:43.861Z,53.70
2018-04-27T05:48:19.066Z,53.90
2018-04-27T05:50:53.416Z,53.70
2018-04-27T05:53:27.698Z,52.10
2018-04-27T05:56:02.037Z,52.30
2018-04-27T05:58:36.321Z,49.60
2018-04-27T06:01:10.610Z,52.80
2018-04-27T06:03:56.781Z,48.50
2018-04-27T06:06:31.193Z,58.40
2018-04-27T06:09:06.567Z,64.20
2018-04-27T06:11:41.184Z,68.40
2018-04-27T06:14:15.504Z,68.80
2018-04-27T06:16:49.840Z,68.60
2018-04-27T06:19:24.210Z,68.60
2018-04-27T06:21:58.549Z,68.80
2018-04-27T06:24:32.926Z,68.80
2018-04-27T06:27:07.386Z,68.40
2018-04-27T06:29:41.673Z,66.90
2018-04-27T06:32:16.723Z,67.00
2018-04-27T06:34:51.861Z,67.20
2018-04-27T06:37:26.301Z,67.20
2018-04-27T06:40:00.598Z,66.10
2018-04-27T06:42:35.624Z,65.10
2018-04-27T06:45:10.099Z,65.00
2018-04-27T06:47:44.512Z,65.30
2018-04-27T06:50:19.011Z,63.50
2018-04-27T06:52:53.281Z,63.80
2018-04-27T06:55:27.651Z,63.20
2018-04-27T06:58:01.986Z,64.00
2018-04-27T07:00:36.456Z,64.00
2018-04-27T07:03:10.740Z,61.80
2018-04-27T07:05:45.044Z,61.50
2018-04-27T07:08:19.548Z,60.40
2018-04-27T07:10:54.172Z,60.00
2018-04-27T07:13:28.600Z,60.10
2018-04-27T07:16:03.002Z,60.30
2018-04-27T07:18:37.440Z,60.30
2018-04-27T07:21:11.844Z,59.90
2018-04-27T07:23:46.379Z,58.50
2018-04-27T07:26:20.670Z,59.30
2018-04-27T07:28:55.824Z,57.80
2018-04-27T07:31:30.252Z,57.70
2018-04-27T07:34:05.347Z,57.40
2018-04-27T07:36:39.814Z,57.30
2018-04-27T07:39:14.101Z,57.20
2018-04-27T07:41:48.452Z,56.40
2018-04-27T07:44:22.888Z,55.40
2018-04-27T07:46:57.302Z,55.20
2018-04-27T07:49:31.817Z,55.10
2018-04-27T07:52:06.213Z,53.70
2018-04-27T07:54:40.483Z,51.40
2018-04-27T07:57:14.842Z,50.50
2018-04-27T07:59:49.145Z,49.60
2018-04-27T08:02:23.680Z,49.80
2018-04-27T08:04:58.096Z,49.70
2018-04-27T08:07:32.353Z,48.30
2018-04-27T08:10:06.666Z,47.80
2018-04-27T08:12:41.100Z,49.50
2018-04-27T08:15:15.471Z,49.20
2018-04-27T08:17:49.836Z,48.50
2018-04-27T08:20:25.677Z,47.70
2018-04-27T08:22:59.952Z,48.00
2018-04-27T08:25:34.448Z,45.80
2018-04-27T08:28:08.956Z,46.10
2018-04-27T08:30:43.340Z,46.00
2018-04-27T08:33:18.379Z,45.00
2018-04-27T08:35:52.696Z,44.90
2018-04-27T08:38:27.140Z,44.90
2018-04-27T08:41:01.462Z,45.70
2018-04-27T08:43:35.767Z,45.10
2018-04-27T08:46:10.304Z,45.80
2018-04-27T08:48:44.596Z,44.90
2018-04-27T08:51:18.936Z,44.90
2018-04-27T08:53:53.569Z,46.10
2018-04-27T08:56:28.104Z,46.80
2018-04-27T08:59:02.532Z,46.00
2018-04-27T09:01:37.160Z,45.70
2018-04-27T09:04:11.660Z,45.40
2018-04-27T09:06:45.985Z,46.40
2018-04-27T09:09:20.365Z,46.80
2018-04-27T09:11:55.047Z,45.90
2018-04-27T09:14:29.550Z,45.40
2018-04-27T09:17:03.875Z,46.10
2018-04-27T09:19:38.449Z,45.70
2018-04-27T09:22:12.800Z,44.30
2018-04-27T09:24:47.240Z,45.20
2018-04-27T09:27:21.536Z,44.30
2018-04-27T09:29:56.672Z,45.60
2018-04-27T09:32:31.116Z,45.60
2018-04-27T09:35:05.473Z,46.50
2018-04-27T09:37:40.550Z,46.00
2018-04-27T09:40:15.086Z,45.90
2018-04-27T09:42:49.524Z,43.90
2018-04-27T09:45:23.891Z,43.40
2018-04-27T09:47:58.224Z,44.20
2018-04-27T09:50:32.624Z,43.90
2018-04-27T09:53:08.180Z,43.70
2018-04-27T09:55:42.645Z,43.70
2018-04-27T09:58:17.844Z,43.00
2018-04-27T10:00:52.188Z,43.00
2018-04-27T10:03:26.432Z,42.10
2018-04-27T10:06:00.820Z,41.60
2018-04-27T10:08:35.176Z,42.80
2018-04-27T10:11:09.549Z,43.50
2018-04-27T10:13:43.848Z,44.00
2018-04-27T10:16:18.105Z,44.30
2018-04-27T10:18:52.528Z,44.70
2018-04-27T10:21:26.941Z,45.40
2018-04-27T10:24:01.282Z,44.90
2018-04-27T10:26:35.549Z,45.10
2018-04-27T10:29:10.011Z,44.40
2018-04-27T10:31:44.453Z,44.00
2018-04-27T10:34:18.726Z,44.40
2018-04-27T10:36:53.876Z,44.90
2018-04-27T10:39:28.185Z,44.90
2018-04-27T10:42:02.730Z,43.70
2018-04-27T10:44:37.136Z,43.40
2018-04-27T10:47:11.555Z,43.70
2018-04-27T10:49:45.855Z,43.10
2018-04-27T10:52:20.169Z,43.50
2018-04-27T10:54:54.476Z,42.00
2018-04-27T10:57:28.820Z,41.80
2018-04-27T11:00:03.074Z,42.10
2018-04-27T11:02:37.478Z,43.50
2018-04-27T11:05:12.024Z,43.70
2018-04-27T11:07:47.100Z,42.90
2018-04-27T11:10:21.414Z,42.90
2018-04-27T11:12:55.754Z,42.40
2018-04-27T11:15:30.243Z,43.20
2018-04-27T11:18:04.633Z,43.60
2018-04-27T11:20:38.993Z,44.70
2018-04-27T11:23:13.471Z,44.60
2018-04-27T11:25:47.968Z,44.00
2018-04-27T11:28:22.516Z,43.80
2018-04-27T11:30:56.755Z,43.20
2018-04-27T11:33:31.033Z,42.10
2018-04-27T11:36:06.384Z,43.50
2018-04-27T11:38:40.892Z,43.50
2018-04-27T11:41:16.020Z,42.10
2018-04-27T11:43:50.561Z,42.10
2018-04-27T11:46:25.572Z,42.30
2018-04-27T11:49:00.207Z,42.20
2018-04-27T11:51:34.627Z,43.30
2018-04-27T11:54:09.072Z,42.30
2018-04-27T11:56:43.908Z,41.90
2018-04-27T11:59:18.213Z,41.70
2018-04-27T12:01:52.499Z,41.80
2018-04-27T12:04:26.854Z,41.00
2018-04-27T12:07:01.264Z,41.70
2018-04-27T12:09:36.516Z,41.80
2018-04-27T12:12:11.016Z,41.40
2018-04-27T12:14:45.553Z,47.90
2018-04-27T12:17:19.872Z,44.10
2018-04-27T12:19:54.181Z,40.70
2018-04-27T12:22:28.588Z,39.30
2018-04-27T12:25:03.032Z,39.90
2018-04-27T12:27:38.140Z,39.10
2018-04-27T12:30:12.493Z,38.50
2018-04-27T12:32:46.902Z,38.70
2018-04-27T12:35:21.320Z,38.90
2018-04-27T12:37:55.748Z,38.60
2018-04-27T12:40:30.185Z,36.70
2018-04-27T12:43:04.700Z,37.80
2018-04-27T12:45:39.112Z,36.80
2018-04-27T12:51:19.789Z,36.60
2018-04-27T12:53:54.506Z,35.60
2018-04-27T12:56:29.060Z,36.70
2018-04-27T12:59:03.686Z,35.40
2018-04-27T13:01:38.413Z,36.20
2018-04-27T13:04:14.396Z,36.70
2018-04-27T13:06:49.386Z,34.50
2018-04-27T13:09:23.719Z,34.40
2018-04-27T13:14:42.664Z,34.10
2018-04-27T13:17:17.141Z,34.90
2018-04-27T13:19:52.678Z,33.70
2018-04-27T13:22:27.084Z,35.00
2018-04-27T13:25:01.721Z,33.70
2018-04-27T13:27:36.344Z,33.80
2018-04-27T13:30:10.757Z,32.40
2018-04-27T13:32:45.048Z,35.10
2018-04-27T13:35:19.496Z,32.70
2018-04-27T13:37:53.940Z,33.80
2018-04-27T13:40:28.441Z,33.10
2018-04-27T13:43:03.690Z,35.00
2018-04-27T13:45:38.105Z,35.00
2018-04-27T13:48:12.396Z,34.80
2018-04-27T13:50:46.794Z,34.70
2018-04-27T13:53:21.245Z,34.60
2018-04-27T13:55:56.373Z,34.30
2018-04-27T13:58:30.664Z,34.20
2018-04-27T14:01:04.941Z,34.00
2018-04-27T14:03:40.191Z,34.70
2018-04-27T14:06:15.560Z,34.00
2018-04-27T14:08:50.039Z,34.00
2018-04-27T14:11:24.358Z,33.40
2018-04-27T14:13:58.865Z,33.90
2018-04-27T14:16:33.290Z,34.10
2018-04-27T14:19:07.644Z,33.50
2018-04-27T14:21:41.960Z,34.30
2018-04-27T14:24:16.349Z,34.40
2018-04-27T14:26:50.982Z,33.40
2018-04-27T14:29:25.408Z,33.60
2018-04-27T14:31:59.684Z,35.90
2018-04-27T14:34:34.060Z,37.60
2018-04-27T14:37:08.772Z,36.60
2018-04-27T14:39:43.388Z,38.10
2018-04-27T14:42:18.541Z,37.40
2018-04-27T14:44:53.037Z,37.30
2018-04-27T14:47:27.400Z,38.50
2018-04-27T14:50:01.801Z,38.10
2018-04-27T14:52:36.041Z,37.80
2018-04-27T14:55:10.435Z,37.50
2018-04-27T14:57:45.668Z,36.30
2018-04-27T15:00:19.912Z,36.30
2018-04-27T15:02:54.996Z,37.10
2018-04-27T15:05:30.959Z,36.90
2018-04-27T15:08:05.503Z,36.90
2018-04-27T15:10:39.922Z,34.50
2018-04-27T15:13:14.348Z,35.40
2018-04-27T15:15:48.824Z,35.50
2018-04-27T15:18:23.683Z,34.40
2018-04-27T15:20:58.028Z,34.60
2018-04-27T15:23:33.224Z,34.00
2018-04-27T15:26:08.383Z,37.00
2018-04-27T15:28:44.244Z,37.00
2018-04-27T15:31:19.488Z,36.80
2018-04-27T15:33:53.891Z,36.80
2018-04-27T15:36:28.204Z,37.10
2018-04-27T15:39:02.529Z,36.80
2018-04-27T15:41:37.777Z,36.80
2018-04-27T15:44:12.107Z,36.80
2018-04-27T15:46:46.524Z,36.60
2018-04-27T15:49:21.148Z,35.70
2018-04-27T15:51:55.577Z,35.80
2018-04-27T15:54:29.849Z,36.90
2018-04-27T15:57:04.313Z,36.10
2018-04-27T15:59:38.836Z,36.90
2018-04-27T16:02:13.973Z,35.50
2018-04-27T16:04:48.348Z,35.50
2018-04-27T16:07:22.914Z,35.30
2018-04-27T16:09:57.447Z,35.40
2018-04-27T16:12:31.725Z,35.60
2018-04-27T16:15:06.131Z,36.00
2018-04-27T16:17:40.384Z,34.90
2018-04-27T16:20:14.713Z,35.10
2018-04-27T16:22:49.040Z,36.40
2018-04-27T16:25:23.656Z,35.90
2018-04-27T16:27:58.187Z,35.50
2018-04-27T16:30:33.296Z,36.60
2018-04-27T16:33:07.604Z,36.50
2018-04-27T16:35:42.983Z,36.80
2018-04-27T16:38:18.315Z,37.10
2018-04-27T16:40:52.825Z,36.60
2018-04-27T16:43:27.168Z,35.60
2018-04-27T16:46:01.456Z,36.50
2018-04-27T16:48:36.723Z,35.20
2018-04-27T16:51:11.144Z,35.90
2018-04-27T16:53:45.564Z,36.00
2018-04-27T16:56:20.804Z,36.30
2018-04-27T16:58:55.220Z,36.20
2018-04-27T17:01:29.852Z,36.20
2018-04-27T17:04:04.101Z,35.60
2018-04-27T17:06:44.837Z,34.60
2018-04-27T17:09:19.104Z,35.90
2018-04-27T17:11:54.297Z,35.60
2018-04-27T17:14:28.623Z,35.60
2018-04-27T17:17:03.142Z,34.50
2018-04-27T17:19:37.544Z,34.70
2018-04-27T17:22:11.993Z,35.10
2018-04-27T17:24:46.353Z,34.90
2018-04-27T17:27:29.148Z,34.70
2018-04-27T17:30:03.554Z,34.70
2018-04-27T17:32:37.830Z,35.10
2018-04-27T17:35:12.230Z,35.20
2018-04-27T17:37:46.448Z,35.40
2018-04-27T17:40:20.948Z,35.80
2018-04-27T17:42:55.225Z,35.60
2018-04-27T17:45:32.396Z,35.50
2018-04-27T17:48:06.965Z,35.50
2018-04-27T17:50:44.513Z,36.00
2018-04-27T17:53:18.784Z,36.20
2018-04-27T17:55:53.269Z,36.70
2018-04-27T17:58:27.545Z,36.40
2018-04-27T18:01:01.916Z,36.70
2018-04-27T18:03:36.300Z,36.60
2018-04-27T18:06:10.652Z,36.20
2018-04-27T18:08:45.184Z,36.50
2018-04-27T18:11:19.495Z,36.90
2018-04-27T18:13:53.793Z,36.70
2018-04-27T18:16:28.084Z,37.00
2018-04-27T18:19:02.524Z,36.90
2018-04-27T18:21:38.952Z,36.90
2018-04-27T18:24:13.345Z,37.00
2018-04-27T18:26:48.279Z,37.20
2018-04-27T18:29:22.920Z,37.20
2018-04-27T18:31:57.428Z,36.90
2018-04-27T18:34:33.143Z,37.30
2018-04-27T18:37:07.995Z,37.10
2018-04-27T18:39:42.257Z,36.90
2018-04-27T18:42:16.637Z,37.10
2018-04-27T18:44:51.057Z,36.70
2018-04-27T18:47:26.408Z,36.80
2018-04-27T18:50:00.901Z,36.90
2018-04-27T18:52:36.062Z,37.40
2018-04-27T18:55:10.606Z,37.40
2018-04-27T18:57:45.192Z,37.50
2018-04-27T19:00:19.604Z,37.50
2018-04-27T19:02:54.049Z,37.40
2018-04-27T19:05:28.568Z,37.50
2018-04-27T19:08:03.768Z,37.60
2018-04-27T19:10:39.259Z,37.20
2018-04-27T19:13:13.882Z,37.80
2018-04-27T19:15:48.415Z,37.70
2018-04-27T19:18:23.644Z,37.80
2018-04-27T19:20:57.965Z,38.00
2018-04-27T19:23:36.756Z,38.20
2018-04-27T19:26:21.035Z,38.20
2018-04-27T19:28:55.468Z,38.10
2018-04-27T19:31:30.585Z,38.20
2018-04-27T19:34:04.912Z,38.10
2018-04-27T19:36:39.336Z,38.10
2018-04-27T19:39:13.857Z,38.20
2018-04-27T19:41:48.278Z,38.20
2018-04-27T19:44:22.644Z,38.20
2018-04-27T19:46:57.331Z,38.30
2018-04-27T19:49:31.956Z,38.30
2018-04-27T19:52:06.414Z,38.30
2018-04-27T19:54:40.996Z,38.10
2018-04-27T19:57:15.420Z,38.40
2018-04-27T19:59:50.636Z,38.40
2018-04-27T20:02:24.983Z,38.40
2018-04-27T20:04:59.502Z,38.40
2018-04-27T20:07:34.125Z,38.50
2018-04-27T20:10:11.004Z,38.50
2018-04-27T20:12:45.632Z,38.50
2018-04-27T20:15:32.765Z,38.60
2018-04-27T20:18:11.538Z,38.60
2018-04-27T20:20:45.995Z,38.60
2018-04-27T20:23:21.037Z,38.40
2018-04-27T20:25:56.421Z,38.60
2018-04-27T20:28:31.712Z,38.40
2018-04-27T20:31:06.059Z,38.30
2018-04-27T20:33:40.331Z,38.70
2018-04-27T20:36:14.641Z,38.80
2018-04-27T20:38:48.966Z,38.80
2018-04-27T20:41:23.240Z,38.80
2018-04-27T20:43:58.304Z,38.70
2018-04-27T20:46:32.732Z,38.70
2018-04-27T20:49:07.768Z,38.90
2018-04-27T20:51:42.804Z,38.80
2018-04-27T20:54:17.309Z,38.80
2018-04-27T20:56:52.592Z,38.90
2018-04-27T20:59:27.804Z,38.80
2018-04-27T21:02:02.173Z,38.80
2018-04-27T21:04:36.558Z,38.80
2018-04-27T21:07:11.100Z,38.60
2018-04-27T21:09:45.720Z,38.90
2018-04-27T21:12:20.141Z,38.90
2018-04-27T21:14:55.256Z,39.20
2018-04-27T21:17:29.676Z,39.10
2018-04-27T21:20:04.721Z,39.60
2018-04-27T21:22:39.941Z,39.50
2018-04-27T21:25:15.008Z,39.10
2018-04-27T21:27:49.437Z,39.30
2018-04-27T21:30:25.377Z,39.70
2018-04-27T21:33:02.698Z,39.70
2018-04-27T21:35:48.893Z,39.70
2018-04-27T21:41:21.531Z,39.60
2018-04-27T21:44:03.699Z,39.50
2018-04-27T21:46:38.056Z,40.00
2018-04-27T21:49:13.337Z,39.90
2018-04-27T21:51:49.538Z,40.10
2018-04-27T21:54:23.977Z,40.20
2018-04-27T21:57:02.336Z,40.00
2018-04-27T21:59:51.473Z,39.80
2018-04-27T22:02:35.781Z,39.80
2018-04-27T22:05:14.524Z,39.70
2018-04-27T22:07:49.021Z,39.70
2018-04-27T22:10:23.520Z,39.70
2018-04-27T22:12:58.004Z,39.70
2018-04-27T22:15:32.465Z,39.70
2018-04-27T22:18:06.728Z,39.80
2018-04-27T22:20:45.901Z,39.80
2018-04-27T22:23:23.732Z,39.90
2018-04-27T22:28:50.677Z,39.80
2018-04-27T22:31:25.788Z,40.00
2018-04-27T22:34:04.512Z,40.00
2018-04-27T22:36:39.676Z,40.10
2018-04-27T22:39:14.828Z,40.10
2018-04-27T22:41:56.678Z,40.10
2018-04-27T22:47:28.282Z,40.10
2018-04-27T22:50:02.704Z,40.30
2018-04-27T22:52:37.092Z,40.30
2018-04-27T22:55:15.231Z,40.30
2018-04-27T22:57:59.708Z,40.40
2018-04-27T23:00:35.915Z,40.50
2018-04-27T23:03:13.143Z,40.50
2018-04-27T23:05:48.792Z,40.60
2018-04-27T23:08:23.205Z,40.70
2018-04-27T23:14:12.196Z,40.60
2018-04-27T23:16:47.888Z,43.30
2018-04-27T23:19:27.027Z,43.30
2018-04-27T23:22:04.981Z,43.60
2018-04-27T23:24:39.400Z,43.60
2018-04-27T23:27:13.808Z,43.40
2018-04-27T23:29:48.449Z,42.40
2018-04-27T23:32:22.764Z,45.70
2018-04-27T23:34:57.039Z,48.40
2018-04-27T23:37:31.615Z,50.00
2018-04-27T23:40:06.125Z,51.30
2018-04-27T23:42:41.548Z,52.10
2018-04-27T23:45:15.833Z,52.90
2018-04-27T23:47:50.112Z,52.90
2018-04-27T23:50:24.526Z,53.10
2018-04-27T23:52:58.944Z,53.20
2018-04-27T23:55:42.180Z,53.30
2018-04-27T23:58:16.424Z,53.40
